Terminal Aerodrome Forecast
Issued by NWS Knoxville/Tri Cities, TN

Home | Current Version | Previous Version | Text Only | Print | Product List | Glossary On
Versions: 1 2 3 4 5 6 7 8 9 10 11 12 13 14 15 16 17 18 19 20 21 22 23 24 25 26 27 28 29 30 31 32 33 34
300
FTUS44 KMRX 221456 AAA
TAFTYS
TAF AMD
KTYS 221456Z 2215/2312 06007KT P6SM BKN060
      TEMPO 2220/2222 5SM -SHRA BKN020
     FM222200 10006KT 4SM -TSRA BR BKN010 OVC025CB
     FM230300 33008KT 2SM -RA BR OVC004
     FM230900 31011KT 4SM -RA BR OVC004=

USA.gov is the U.S. government's official web portal to all federal, state and local government web resources and services.